createdAt,value
2019-02-23T00:00:35.258Z,69.73
2019-02-23T00:01:38.690Z,69.64
2019-02-23T00:02:42.118Z,69.79
2019-02-23T00:03:45.621Z,69.51
2019-02-23T00:04:49.097Z,69.58
2019-02-23T00:05:52.546Z,69.67
2019-02-23T00:06:55.970Z,69.56
2019-02-23T00:07:59.397Z,69.64
2019-02-23T00:09:02.907Z,69.23
2019-02-23T00:10:07.917Z,69.23
2019-02-23T00:11:11.432Z,69.29
2019-02-23T00:12:14.934Z,69.30
2019-02-23T00:13:18.435Z,69.29
2019-02-23T00:14:21.934Z,69.31
2019-02-23T00:15:25.388Z,69.49
2019-02-23T00:16:28.928Z,69.78
2019-02-23T00:17:32.414Z,69.85
2019-02-23T00:18:35.937Z,69.72
2019-02-23T00:19:39.437Z,69.59
2019-02-23T00:20:43.060Z,69.48
2019-02-23T00:21:46.578Z,69.47
2019-02-23T00:22:50.098Z,69.51
2019-02-23T00:23:53.543Z,69.55
2019-02-23T00:24:57.051Z,69.68
2019-02-23T00:26:00.506Z,69.52
2019-02-23T00:27:04.078Z,69.39
2019-02-23T00:28:07.637Z,69.33
2019-02-23T00:29:11.149Z,69.38
2019-02-23T00:30:14.727Z,69.35
2019-02-23T00:31:18.265Z,69.42
2019-02-23T00:32:21.728Z,69.32
2019-02-23T00:33:25.235Z,69.38
2019-02-23T00:34:28.687Z,69.29
2019-02-23T00:35:32.202Z,69.24
2019-02-23T00:36:35.652Z,69.44
2019-02-23T00:37:39.178Z,69.68
2019-02-23T00:38:42.607Z,69.64
2019-02-23T00:39:46.044Z,69.42
2019-02-23T00:40:49.484Z,69.24
2019-02-23T00:41:52.950Z,69.03
2019-02-23T00:42:56.481Z,69.01
2019-02-23T00:43:59.935Z,69.42
2019-02-23T00:45:03.518Z,69.59
2019-02-23T00:46:07.030Z,69.74
2019-02-23T00:47:10.569Z,69.67
2019-02-23T00:48:14.028Z,69.69
2019-02-23T00:49:17.474Z,69.40
2019-02-23T00:50:21.000Z,69.49
2019-02-23T00:51:24.441Z,69.30
2019-02-23T00:52:27.905Z,69.32
2019-02-23T00:53:31.368Z,69.18
2019-02-23T00:54:34.938Z,68.96
2019-02-23T00:55:38.362Z,69.09
2019-02-23T00:56:41.794Z,69.07
2019-02-23T00:57:45.252Z,68.83
2019-02-23T00:58:48.699Z,68.78
2019-02-23T00:59:52.129Z,68.98
2019-02-23T01:00:55.624Z,69.34
2019-02-23T01:01:59.055Z,69.31
2019-02-23T01:03:02.515Z,69.05
2019-02-23T01:04:06.111Z,68.70
2019-02-23T01:05:09.726Z,68.88
2019-02-23T01:06:13.467Z,68.81
2019-02-23T01:07:17.112Z,68.64
2019-02-23T01:08:20.528Z,68.70
2019-02-23T01:09:24.029Z,68.67
2019-02-23T01:10:27.474Z,68.83
2019-02-23T01:11:30.910Z,68.96
2019-02-23T01:12:34.418Z,68.96
2019-02-23T01:13:37.888Z,68.82
2019-02-23T01:14:41.428Z,68.67
2019-02-23T01:15:44.874Z,68.92
2019-02-23T01:16:48.323Z,68.95
2019-02-23T01:17:51.764Z,68.75
2019-02-23T01:18:55.299Z,68.71
2019-02-23T01:19:59.023Z,68.66
2019-02-23T01:21:02.637Z,68.78
2019-02-23T01:22:06.155Z,68.94
2019-02-23T01:23:09.709Z,68.86
2019-02-23T01:24:13.255Z,68.56
2019-02-23T01:25:16.672Z,68.36
2019-02-23T01:26:20.102Z,68.42
2019-02-23T01:27:23.625Z,68.35
2019-02-23T01:28:27.134Z,68.42
2019-02-23T01:29:30.591Z,68.41
2019-02-23T01:30:34.051Z,68.52
2019-02-23T01:31:37.562Z,68.62
2019-02-23T01:32:40.996Z,68.77
2019-02-23T01:33:44.491Z,68.93
2019-02-23T01:34:47.940Z,68.85
2019-02-23T01:35:51.391Z,68.62
2019-02-23T01:36:54.824Z,68.62
2019-02-23T01:37:58.571Z,68.67
2019-02-23T01:39:02.003Z,68.16
2019-02-23T01:40:08.382Z,68.27
2019-02-23T01:41:11.882Z,68.49
2019-02-23T01:42:15.337Z,68.33
2019-02-23T01:43:18.784Z,68.20
2019-02-23T01:44:22.211Z,68.38
2019-02-23T01:45:25.729Z,68.56
2019-02-23T01:46:29.240Z,68.58
2019-02-23T01:47:32.706Z,68.32
2019-02-23T01:48:36.270Z,68.36
2019-02-23T01:49:39.704Z,68.40
2019-02-23T01:50:43.243Z,68.37
2019-02-23T01:51:46.686Z,68.43
2019-02-23T01:52:50.189Z,68.39
2019-02-23T01:53:53.717Z,68.38
2019-02-23T01:54:57.206Z,68.45
2019-02-23T01:56:00.734Z,68.55
2019-02-23T01:57:04.382Z,68.62
2019-02-23T01:58:07.979Z,68.32
2019-02-23T01:59:11.423Z,68.25
2019-02-23T02:00:15.362Z,68.14
2019-02-23T02:01:19.050Z,68.01
2019-02-23T02:02:22.566Z,68.14
2019-02-23T02:03:26.169Z,68.32
2019-02-23T02:04:29.762Z,68.33
2019-02-23T02:05:33.203Z,68.29
2019-02-23T02:06:36.656Z,68.34
2019-02-23T02:07:40.173Z,68.19
2019-02-23T02:08:43.774Z,68.37
2019-02-23T02:09:47.214Z,68.42
2019-02-23T02:10:50.799Z,68.44
2019-02-23T02:11:54.317Z,68.75
2019-02-23T02:12:57.823Z,68.81
2019-02-23T02:14:01.334Z,68.89
2019-02-23T02:15:07.437Z,68.76
2019-02-23T02:16:10.869Z,68.76
2019-02-23T02:17:14.397Z,68.71
2019-02-23T02:18:17.857Z,68.61
2019-02-23T02:19:21.296Z,68.60
2019-02-23T02:20:24.732Z,68.56
2019-02-23T02:21:28.164Z,68.72
2019-02-23T02:22:31.696Z,68.84
2019-02-23T02:23:35.150Z,68.77
2019-02-23T02:24:38.650Z,68.85
2019-02-23T02:25:42.089Z,68.90
2019-02-23T02:26:45.592Z,68.77
2019-02-23T02:27:49.043Z,68.74
2019-02-23T02:28:52.473Z,68.54
2019-02-23T02:29:55.920Z,68.59
2019-02-23T02:30:59.368Z,68.45
2019-02-23T02:32:02.809Z,68.51
2019-02-23T02:33:06.470Z,68.51
2019-02-23T02:34:12.057Z,68.62
2019-02-23T02:35:15.482Z,68.48
2019-02-23T02:36:18.996Z,68.50
2019-02-23T02:37:22.433Z,68.57
2019-02-23T02:38:25.888Z,68.36
2019-02-23T02:39:29.400Z,68.54
2019-02-23T02:40:32.910Z,68.77
2019-02-23T02:41:36.413Z,68.75
2019-02-23T02:42:40.042Z,69.14
2019-02-23T02:43:43.525Z,69.17
2019-02-23T02:44:47.026Z,69.11
2019-02-23T02:45:50.462Z,68.94
2019-02-23T02:46:53.976Z,68.98
2019-02-23T02:47:57.555Z,69.16
2019-02-23T02:49:01.002Z,69.23
2019-02-23T02:50:06.197Z,69.34
2019-02-23T02:51:09.628Z,69.16
2019-02-23T02:52:13.149Z,69.09
2019-02-23T02:53:16.596Z,68.98
2019-02-23T02:54:20.125Z,69.14
2019-02-23T02:55:23.577Z,69.27
2019-02-23T02:56:27.103Z,69.21
2019-02-23T02:57:30.619Z,69.10
2019-02-23T02:58:34.047Z,69.03
2019-02-23T02:59:37.509Z,69.13
2019-02-23T03:00:41.062Z,69.39
2019-02-23T03:01:44.459Z,69.55
2019-02-23T03:02:47.974Z,69.51
2019-02-23T03:03:51.488Z,69.53
2019-02-23T03:04:54.952Z,69.48
2019-02-23T03:05:58.417Z,69.53
2019-02-23T03:07:01.851Z,69.47
2019-02-23T03:08:05.321Z,69.54
2019-02-23T03:09:10.671Z,69.74
2019-02-23T03:10:14.262Z,69.70
2019-02-23T03:11:17.833Z,69.74
2019-02-23T03:12:21.227Z,69.57
2019-02-23T03:13:24.730Z,69.54
2019-02-23T03:14:28.176Z,69.37
2019-02-23T03:15:31.686Z,69.39
2019-02-23T03:16:35.204Z,69.19
2019-02-23T03:17:38.720Z,69.18
2019-02-23T03:18:42.164Z,69.08
2019-02-23T03:19:45.599Z,68.96
2019-02-23T03:20:49.051Z,68.67
2019-02-23T03:21:52.578Z,68.82
2019-02-23T03:22:56.015Z,68.80
2019-02-23T03:23:59.452Z,68.85
2019-02-23T03:25:02.885Z,68.68
2019-02-23T03:26:06.430Z,68.69
2019-02-23T03:27:09.880Z,68.67
2019-02-23T03:28:13.313Z,68.63
2019-02-23T03:29:16.742Z,68.45
2019-02-23T03:30:20.187Z,68.39
2019-02-23T03:31:23.664Z,68.55
2019-02-23T03:32:27.101Z,68.41
2019-02-23T03:33:30.599Z,68.32
2019-02-23T03:34:34.024Z,68.50
2019-02-23T03:35:37.469Z,68.81
2019-02-23T03:36:40.998Z,69.01
2019-02-23T03:37:44.437Z,69.09
2019-02-23T03:38:47.871Z,69.12
2019-02-23T03:39:51.329Z,69.30
2019-02-23T03:40:54.826Z,69.26
2019-02-23T03:41:58.728Z,69.11
2019-02-23T03:43:02.154Z,69.27
2019-02-23T03:44:05.669Z,69.14
2019-02-23T03:45:09.263Z,69.05
2019-02-23T03:46:12.793Z,68.98
2019-02-23T03:47:16.256Z,68.98
2019-02-23T03:48:19.692Z,68.96
2019-02-23T03:49:23.131Z,69.18
2019-02-23T03:50:26.567Z,69.36
2019-02-23T03:51:30.006Z,69.57
2019-02-23T03:52:33.535Z,69.51
2019-02-23T03:53:37.035Z,69.61
2019-02-23T03:54:40.802Z,69.60
2019-02-23T03:55:44.677Z,69.74
2019-02-23T03:56:48.180Z,69.87
2019-02-23T03:57:51.748Z,70.00
2019-02-23T03:58:55.170Z,70.10
2019-02-23T03:59:58.736Z,70.06
2019-02-23T04:01:02.175Z,69.99
2019-02-23T04:02:05.607Z,69.97
2019-02-23T04:03:09.056Z,69.99
2019-02-23T04:04:12.566Z,69.91
2019-02-23T04:05:16.080Z,69.66
2019-02-23T04:06:19.518Z,69.73
2019-02-23T04:07:22.955Z,69.85
2019-02-23T04:08:26.418Z,70.00
2019-02-23T04:09:29.984Z,69.75
2019-02-23T04:10:33.418Z,69.71
2019-02-23T04:11:36.857Z,69.53
2019-02-23T04:12:40.280Z,69.49
2019-02-23T04:13:43.818Z,69.40
2019-02-23T04:14:47.262Z,69.39
2019-02-23T04:15:50.721Z,69.24
2019-02-23T04:16:54.146Z,68.74
2019-02-23T04:17:57.574Z,68.89
2019-02-23T04:19:01.028Z,68.93
2019-02-23T04:20:06.234Z,68.67
2019-02-23T04:21:09.662Z,68.85
2019-02-23T04:22:13.075Z,68.75
2019-02-23T04:23:16.528Z,68.72
2019-02-23T04:24:19.957Z,68.73
2019-02-23T04:25:23.389Z,68.88
2019-02-23T04:26:26.821Z,68.97
2019-02-23T04:27:30.321Z,69.00
2019-02-23T04:28:33.750Z,69.00
2019-02-23T04:29:37.271Z,68.90
2019-02-23T04:30:40.701Z,68.67
2019-02-23T04:31:44.138Z,68.84
2019-02-23T04:32:47.563Z,68.95
2019-02-23T04:33:51.061Z,68.89
2019-02-23T04:34:54.510Z,68.71
2019-02-23T04:35:58.116Z,68.94
2019-02-23T04:37:01.538Z,68.75
2019-02-23T04:38:04.968Z,68.57
2019-02-23T04:39:08.404Z,68.59
2019-02-23T04:40:11.922Z,68.55
2019-02-23T04:41:15.347Z,68.72
2019-02-23T04:42:18.783Z,68.87
2019-02-23T04:43:22.219Z,69.18
2019-02-23T04:44:25.656Z,69.25
2019-02-23T04:45:29.187Z,68.99
2019-02-23T04:46:32.723Z,68.84
2019-02-23T04:47:36.153Z,69.26
2019-02-23T04:48:39.753Z,68.76
2019-02-23T04:49:44.695Z,69.21
2019-02-23T04:50:48.141Z,68.86
2019-02-23T04:51:51.616Z,69.01
2019-02-23T04:52:55.067Z,68.72
2019-02-23T04:53:58.586Z,68.50
2019-02-23T04:55:02.021Z,69.08
2019-02-23T04:56:05.549Z,68.98
2019-02-23T04:57:09.000Z,67.77
2019-02-23T04:58:12.433Z,67.41
2019-02-23T04:59:15.862Z,66.42
2019-02-23T05:00:19.446Z,66.18
2019-02-23T05:01:22.861Z,65.87
2019-02-23T05:02:26.332Z,66.35
2019-02-23T05:03:29.763Z,66.07
2019-02-23T05:04:33.281Z,65.91
2019-02-23T05:05:36.718Z,65.72
2019-02-23T05:06:40.171Z,65.44
2019-02-23T05:07:43.625Z,65.37
2019-02-23T05:08:47.053Z,64.97
2019-02-23T05:09:50.554Z,64.70
2019-02-23T05:10:53.992Z,64.37
2019-02-23T05:11:57.526Z,64.73
2019-02-23T05:13:00.970Z,64.56
2019-02-23T05:14:04.573Z,64.54
2019-02-23T05:15:10.090Z,64.30
2019-02-23T05:16:13.495Z,64.42
2019-02-23T05:17:16.955Z,64.74
2019-02-23T05:18:20.459Z,64.76
2019-02-23T05:19:23.896Z,64.87
2019-02-23T05:20:27.411Z,64.87
2019-02-23T05:21:30.838Z,64.13
2019-02-23T05:22:34.424Z,64.38
2019-02-23T05:23:37.880Z,64.09
2019-02-23T05:24:41.324Z,63.77
2019-02-23T05:25:44.918Z,64.33
2019-02-23T05:26:48.409Z,64.31
2019-02-23T05:27:51.884Z,64.17
2019-02-23T05:28:55.318Z,64.14
2019-02-23T05:29:58.762Z,64.41
2019-02-23T05:31:02.200Z,64.25
2019-02-23T05:32:05.639Z,64.14
2019-02-23T05:33:09.233Z,64.19
2019-02-23T05:34:12.665Z,64.12
2019-02-23T05:35:16.184Z,64.29
2019-02-23T05:36:19.634Z,64.16
2019-02-23T05:37:23.152Z,64.04
2019-02-23T05:38:26.663Z,64.28
2019-02-23T05:39:30.130Z,63.95
2019-02-23T05:40:33.573Z,64.13
2019-02-23T05:41:37.081Z,64.13
2019-02-23T05:42:40.532Z,64.00
2019-02-23T05:43:44.055Z,63.75
2019-02-23T05:44:47.510Z,63.29
2019-02-23T05:45:51.018Z,63.43
2019-02-23T05:46:54.488Z,63.57
2019-02-23T05:47:57.903Z,63.46
2019-02-23T05:49:01.434Z,63.62
2019-02-23T05:50:07.031Z,63.70
2019-02-23T05:51:10.492Z,63.51
2019-02-23T05:52:13.990Z,63.58
2019-02-23T05:53:17.463Z,63.08
2019-02-23T05:54:20.866Z,62.93
2019-02-23T05:55:24.324Z,63.26
2019-02-23T05:56:27.765Z,63.28
2019-02-23T05:57:31.237Z,62.70
2019-02-23T05:58:34.689Z,62.83
2019-02-23T05:59:38.143Z,62.98
2019-02-23T06:00:41.617Z,62.67
2019-02-23T06:01:45.185Z,62.63
2019-02-23T06:02:48.632Z,62.62
2019-02-23T06:03:52.132Z,62.58
2019-02-23T06:04:55.670Z,62.61
2019-02-23T06:05:59.228Z,62.41
2019-02-23T06:07:02.782Z,62.09
2019-02-23T06:08:06.282Z,61.93
2019-02-23T06:09:09.751Z,62.28
2019-02-23T06:10:13.367Z,62.37
2019-02-23T06:11:16.875Z,62.34
2019-02-23T06:12:20.392Z,62.39
2019-02-23T06:13:23.828Z,62.02
2019-02-23T06:14:27.278Z,62.00
2019-02-23T06:15:30.727Z,61.44
2019-02-23T06:16:34.284Z,61.88
2019-02-23T06:17:37.746Z,61.73
2019-02-23T06:18:41.263Z,61.09
2019-02-23T06:19:44.773Z,60.82
2019-02-23T06:20:48.306Z,61.34
2019-02-23T06:21:54.169Z,61.39
2019-02-23T06:22:56.988Z,61.48
2019-02-23T06:24:00.439Z,61.48
2019-02-23T06:25:04.456Z,61.44
2019-02-23T06:26:07.914Z,61.38
2019-02-23T06:27:11.412Z,61.06
2019-02-23T06:28:14.911Z,61.13
2019-02-23T06:29:18.373Z,61.10
2019-02-23T06:30:21.877Z,60.63
2019-02-23T06:31:25.405Z,60.66
2019-02-23T06:32:29.041Z,60.73
2019-02-23T06:33:32.564Z,60.56
2019-02-23T06:34:35.991Z,60.57
2019-02-23T06:35:39.444Z,60.37
2019-02-23T06:36:42.896Z,59.84
2019-02-23T06:37:46.385Z,59.96
2019-02-23T06:38:49.827Z,60.05
2019-02-23T06:39:53.250Z,60.13
2019-02-23T06:40:56.792Z,60.14
2019-02-23T06:42:00.424Z,59.71
2019-02-23T06:43:03.919Z,59.38
2019-02-23T06:44:07.351Z,59.51
2019-02-23T06:45:12.429Z,58.98
2019-02-23T06:46:15.865Z,59.09
2019-02-23T06:47:19.323Z,59.26
2019-02-23T06:48:22.751Z,58.84
2019-02-23T06:49:26.250Z,59.22
2019-02-23T06:50:29.675Z,58.95
2019-02-23T06:51:33.123Z,58.94
2019-02-23T06:52:36.641Z,59.13
2019-02-23T06:53:40.138Z,59.03
2019-02-23T06:54:43.568Z,58.96
2019-02-23T06:55:47.008Z,59.02
2019-02-23T06:56:50.463Z,59.01
2019-02-23T06:57:53.916Z,59.13
2019-02-23T06:58:57.353Z,59.07
2019-02-23T07:00:00.857Z,59.10
2019-02-23T07:01:04.355Z,59.12
2019-02-23T07:02:07.900Z,59.30
2019-02-23T07:03:11.332Z,59.28
2019-02-23T07:04:14.775Z,59.17
2019-02-23T07:05:18.342Z,59.03
2019-02-23T07:06:21.771Z,59.12
2019-02-23T07:07:25.242Z,59.07
2019-02-23T07:08:28.702Z,59.05
2019-02-23T07:09:32.258Z,58.56
2019-02-23T07:10:35.724Z,58.67
2019-02-23T07:11:39.225Z,58.54
2019-02-23T07:12:42.773Z,58.57
2019-02-23T07:13:46.223Z,58.34
2019-02-23T07:14:49.693Z,58.52
2019-02-23T07:15:53.204Z,58.62
2019-02-23T07:16:56.669Z,58.87
2019-02-23T07:18:00.686Z,58.74
2019-02-23T07:19:04.307Z,58.66
2019-02-23T07:20:09.835Z,58.74
2019-02-23T07:21:13.348Z,58.51
2019-02-23T07:22:16.849Z,58.79
2019-02-23T07:23:20.376Z,58.63
2019-02-23T07:24:23.816Z,58.96
2019-02-23T07:25:27.245Z,58.83
2019-02-23T07:26:30.686Z,58.24
2019-02-23T07:27:34.123Z,58.20
2019-02-23T07:28:37.639Z,58.03
2019-02-23T07:29:41.069Z,58.11
2019-02-23T07:30:44.530Z,57.81
2019-02-23T07:31:48.048Z,57.82
2019-02-23T07:32:51.546Z,57.73
2019-02-23T07:33:55.035Z,57.47
2019-02-23T07:34:58.690Z,57.58
2019-02-23T07:36:02.211Z,57.56
2019-02-23T07:37:05.766Z,57.75
2019-02-23T07:38:09.297Z,57.78
2019-02-23T07:39:12.819Z,57.85
2019-02-23T07:40:17.281Z,57.88
2019-02-23T07:41:20.750Z,57.12
2019-02-23T07:42:24.264Z,57.25
2019-02-23T07:43:27.814Z,57.62
2019-02-23T07:44:31.270Z,57.48
2019-02-23T07:45:34.694Z,57.39
2019-02-23T07:46:38.857Z,57.09
2019-02-23T07:47:42.292Z,56.48
2019-02-23T07:48:45.787Z,56.89
2019-02-23T07:49:50.056Z,56.90
2019-02-23T07:50:53.546Z,56.62
2019-02-23T07:51:57.048Z,56.47
2019-02-23T07:53:00.610Z,56.40
2019-02-23T07:54:04.189Z,56.84
2019-02-23T07:55:08.256Z,56.77
2019-02-23T07:56:12.338Z,56.51
2019-02-23T07:57:15.856Z,56.03
2019-02-23T07:58:19.410Z,56.02
2019-02-23T07:59:23.037Z,56.38
2019-02-23T08:00:26.608Z,56.18
2019-02-23T08:01:30.023Z,55.04
2019-02-23T08:02:33.526Z,55.40
2019-02-23T08:03:37.031Z,55.17
2019-02-23T08:04:40.466Z,55.29
2019-02-23T08:05:44.045Z,54.99
2019-02-23T08:06:47.610Z,53.73
2019-02-23T08:07:50.988Z,54.23
2019-02-23T08:08:54.426Z,54.01
2019-02-23T08:09:58.030Z,53.60
2019-02-23T08:11:01.509Z,54.93
2019-02-23T08:12:04.956Z,53.98
2019-02-23T08:13:09.556Z,54.08
2019-02-23T08:14:13.239Z,53.59
2019-02-23T08:15:16.717Z,53.41
2019-02-23T08:16:20.149Z,53.39
2019-02-23T08:17:23.581Z,54.47
2019-02-23T08:18:27.016Z,52.93
2019-02-23T08:19:30.469Z,52.87
2019-02-23T08:20:33.881Z,52.99
2019-02-23T08:21:37.447Z,53.14
2019-02-23T08:22:40.892Z,53.30
2019-02-23T08:23:44.348Z,53.33
2019-02-23T08:24:47.744Z,53.93
2019-02-23T08:25:51.198Z,54.32
2019-02-23T08:26:54.658Z,54.49
2019-02-23T08:27:58.133Z,54.36
2019-02-23T08:29:01.569Z,54.13
2019-02-23T08:30:08.201Z,54.01
2019-02-23T08:31:13.419Z,54.31
2019-02-23T08:32:16.948Z,54.44
2019-02-23T08:33:20.394Z,53.95
2019-02-23T08:34:23.827Z,53.86
2019-02-23T08:35:27.426Z,53.54
2019-02-23T08:36:30.862Z,54.05
2019-02-23T08:37:34.317Z,53.64
2019-02-23T08:38:37.756Z,53.71
2019-02-23T08:39:41.205Z,53.47
2019-02-23T08:40:44.713Z,53.42
2019-02-23T08:41:48.151Z,53.19
2019-02-23T08:42:51.596Z,53.13
2019-02-23T08:43:55.068Z,52.56
2019-02-23T08:44:58.505Z,51.88
2019-02-23T08:46:01.929Z,51.82
2019-02-23T08:47:05.444Z,52.19
2019-02-23T08:48:08.891Z,51.37
2019-02-23T08:49:15.009Z,50.75
2019-02-23T08:50:18.587Z,50.79
2019-02-23T08:51:22.019Z,50.82
2019-02-23T08:52:25.456Z,49.97
2019-02-23T08:53:28.901Z,50.46
2019-02-23T08:54:32.353Z,50.26
2019-02-23T08:55:35.779Z,50.46
2019-02-23T08:56:39.204Z,50.26
2019-02-23T08:57:42.773Z,49.64
2019-02-23T08:58:46.246Z,49.87
2019-02-23T08:59:49.842Z,48.64
2019-02-23T09:00:53.306Z,49.11
2019-02-23T09:01:56.797Z,48.61
2019-02-23T09:03:00.518Z,48.87
2019-02-23T09:04:04.087Z,48.66
2019-02-23T09:05:09.284Z,48.45
2019-02-23T09:06:12.698Z,47.42
2019-02-23T09:07:16.139Z,48.96
2019-02-23T09:08:19.567Z,49.99
2019-02-23T09:09:23.115Z,47.12
2019-02-23T09:10:26.619Z,47.25
2019-02-23T09:11:30.053Z,46.80
2019-02-23T09:12:33.475Z,46.63
2019-02-23T09:13:36.927Z,45.86
2019-02-23T09:14:40.368Z,46.09
2019-02-23T09:15:43.811Z,45.38
2019-02-23T09:16:47.228Z,45.15
2019-02-23T09:17:50.661Z,45.18
2019-02-23T09:18:54.090Z,45.10
2019-02-23T09:19:57.538Z,45.29
2019-02-23T09:21:00.962Z,44.17
2019-02-23T09:22:04.392Z,42.93
2019-02-23T09:23:07.879Z,42.66
2019-02-23T09:24:11.316Z,42.65
2019-02-23T09:25:14.902Z,42.08
2019-02-23T09:26:18.391Z,41.50
2019-02-23T09:27:21.827Z,42.07
2019-02-23T09:28:25.264Z,41.66
2019-02-23T09:29:28.830Z,41.15
2019-02-23T09:30:32.341Z,40.99
2019-02-23T09:31:35.784Z,40.40
2019-02-23T09:32:39.283Z,41.21
2019-02-23T09:33:42.886Z,40.49
2019-02-23T09:34:46.358Z,40.25
2019-02-23T09:35:49.850Z,39.81
2019-02-23T09:36:53.364Z,40.27
2019-02-23T09:37:56.777Z,39.06
2019-02-23T09:39:00.283Z,40.43
2019-02-23T09:40:04.590Z,39.31
2019-02-23T09:41:08.163Z,39.60
2019-02-23T09:42:11.667Z,40.68
2019-02-23T09:43:17.721Z,40.67
2019-02-23T09:44:20.338Z,40.62
2019-02-23T09:45:23.833Z,40.39
2019-02-23T09:46:27.384Z,41.06
2019-02-23T09:47:30.892Z,40.16
2019-02-23T09:48:34.412Z,39.92
2019-02-23T09:49:37.846Z,40.67
2019-02-23T09:50:41.337Z,39.50
2019-02-23T09:51:44.887Z,39.96
2019-02-23T09:52:48.336Z,40.15
2019-02-23T09:53:51.872Z,39.16
2019-02-23T09:54:55.298Z,39.23
2019-02-23T09:55:58.733Z,40.08
2019-02-23T09:57:02.446Z,40.52
2019-02-23T09:58:06.041Z,40.08
2019-02-23T09:59:09.528Z,40.18
2019-02-23T10:00:14.621Z,39.10
2019-02-23T10:01:18.018Z,38.38
2019-02-23T10:02:21.608Z,38.46
2019-02-23T10:03:25.065Z,38.99
2019-02-23T10:04:28.501Z,38.55
2019-02-23T10:05:31.930Z,38.42
2019-02-23T10:06:35.597Z,38.35
2019-02-23T10:07:39.226Z,36.89
2019-02-23T10:08:42.721Z,36.84
2019-02-23T10:09:46.312Z,35.88
2019-02-23T10:10:49.774Z,33.97
2019-02-23T10:11:53.362Z,33.88
2019-02-23T10:12:56.935Z,33.97
2019-02-23T10:14:00.371Z,34.76
2019-02-23T10:15:04.770Z,33.74
2019-02-23T10:16:08.166Z,33.44
2019-02-23T10:17:11.716Z,31.76
2019-02-23T10:18:15.253Z,33.17
2019-02-23T10:19:18.693Z,33.25
2019-02-23T10:20:22.181Z,33.21
2019-02-23T10:21:25.633Z,33.20
2019-02-23T10:22:29.087Z,33.91
2019-02-23T10:23:32.595Z,34.81
2019-02-23T10:24:36.046Z,35.93
2019-02-23T10:25:39.622Z,37.51
2019-02-23T10:26:43.109Z,39.03
2019-02-23T10:27:46.652Z,39.70
2019-02-23T10:28:50.198Z,40.46
2019-02-23T10:29:53.633Z,40.66
2019-02-23T10:30:57.066Z,40.76
2019-02-23T10:32:00.566Z,40.41
2019-02-23T10:33:04.074Z,40.61
2019-02-23T10:34:07.564Z,40.91
2019-02-23T10:35:12.456Z,42.37
2019-02-23T10:36:15.952Z,42.40
2019-02-23T10:37:19.403Z,42.40
2019-02-23T10:38:22.974Z,42.18
2019-02-23T10:39:26.583Z,42.56
2019-02-23T10:40:30.044Z,42.07
2019-02-23T10:41:33.477Z,41.28
2019-02-23T10:42:36.902Z,41.11
2019-02-23T10:43:40.347Z,39.84
2019-02-23T10:44:43.797Z,40.27
2019-02-23T10:45:47.452Z,40.82
2019-02-23T10:46:50.978Z,39.74
2019-02-23T10:47:54.404Z,40.11
2019-02-23T10:48:57.913Z,39.34
2019-02-23T10:50:01.388Z,39.76
2019-02-23T10:51:05.103Z,40.87
2019-02-23T10:52:08.654Z,40.42
2019-02-23T10:53:12.227Z,40.02
2019-02-23T10:54:15.766Z,40.53
2019-02-23T10:55:19.305Z,40.59
2019-02-23T10:56:22.927Z,39.46
2019-02-23T10:57:26.499Z,39.02
2019-02-23T10:58:30.074Z,38.66
2019-02-23T10:59:33.540Z,38.67
2019-02-23T11:00:37.330Z,38.11
2019-02-23T11:01:40.739Z,38.57
2019-02-23T11:02:44.251Z,38.66
2019-02-23T11:03:47.818Z,38.50
2019-02-23T11:04:51.365Z,37.61
2019-02-23T11:05:54.924Z,37.15
2019-02-23T11:06:58.419Z,37.08
2019-02-23T11:08:01.993Z,36.81
2019-02-23T11:09:08.004Z,36.96
2019-02-23T11:10:11.676Z,37.47
2019-02-23T11:11:15.211Z,38.47
2019-02-23T11:12:18.820Z,38.21
2019-02-23T11:13:22.294Z,37.44
2019-02-23T11:14:25.865Z,37.01
2019-02-23T11:15:29.474Z,36.44
2019-02-23T11:16:32.921Z,37.03
2019-02-23T11:17:36.357Z,36.52
2019-02-23T11:18:39.893Z,36.52
2019-02-23T11:19:43.315Z,35.82
2019-02-23T11:20:47.042Z,35.03
2019-02-23T11:21:50.749Z,35.13
2019-02-23T11:22:54.244Z,35.93
2019-02-23T11:23:57.740Z,36.05
2019-02-23T11:25:01.239Z,35.60
2019-02-23T11:26:04.844Z,35.95
2019-02-23T11:27:08.482Z,36.04
2019-02-23T11:28:11.987Z,36.23
2019-02-23T11:29:15.493Z,35.89
2019-02-23T11:30:19.121Z,35.51
2019-02-23T11:31:22.918Z,37.11
2019-02-23T11:32:26.420Z,36.47
2019-02-23T11:33:30.114Z,37.51
2019-02-23T11:34:34.276Z,35.79
2019-02-23T11:35:37.842Z,35.51
2019-02-23T11:36:41.464Z,36.08
2019-02-23T11:37:45.015Z,35.79
2019-02-23T11:38:48.602Z,35.41
2019-02-23T11:39:52.217Z,35.61
2019-02-23T11:40:55.672Z,35.69
2019-02-23T11:41:59.226Z,35.66
2019-02-23T11:43:02.887Z,35.32
2019-02-23T11:44:06.766Z,35.77
2019-02-23T11:45:11.429Z,36.09
2019-02-23T11:46:14.916Z,35.31
2019-02-23T11:47:18.433Z,35.04
2019-02-23T11:48:21.949Z,35.23
2019-02-23T11:49:25.451Z,36.01
2019-02-23T11:50:28.929Z,35.64
2019-02-23T11:51:32.429Z,35.82
2019-02-23T11:52:36.160Z,35.76
2019-02-23T11:53:39.655Z,35.61
2019-02-23T11:54:44.789Z,35.68
2019-02-23T11:55:48.375Z,34.69
2019-02-23T11:56:51.935Z,34.43
2019-02-23T11:57:55.408Z,35.14
2019-02-23T11:58:58.916Z,34.51
2019-02-23T12:00:03.452Z,34.26
2019-02-23T12:01:06.942Z,33.97
2019-02-23T12:02:10.456Z,34.02
2019-02-23T12:03:14.044Z,34.34
2019-02-23T12:04:17.517Z,33.55
2019-02-23T12:05:20.981Z,33.67
2019-02-23T12:06:24.398Z,32.29
2019-02-23T12:07:27.902Z,33.20
2019-02-23T12:08:31.340Z,32.56
2019-02-23T12:09:34.776Z,32.13
2019-02-23T12:10:38.342Z,31.78
2019-02-23T12:11:41.770Z,30.46
2019-02-23T12:12:45.273Z,30.92
2019-02-23T12:13:48.792Z,29.58
2019-02-23T12:14:52.319Z,29.06
2019-02-23T12:15:55.748Z,27.61
2019-02-23T12:16:59.175Z,25.95
2019-02-23T12:18:02.683Z,26.29
2019-02-23T12:19:06.175Z,25.82
2019-02-23T12:20:10.982Z,26.98
2019-02-23T12:21:14.874Z,26.77
2019-02-23T12:22:18.301Z,26.98
2019-02-23T12:23:22.090Z,26.16
2019-02-23T12:24:25.536Z,26.87
2019-02-23T12:25:29.011Z,25.73
2019-02-23T12:26:32.521Z,24.92
2019-02-23T12:27:36.085Z,24.92
2019-02-23T12:28:39.520Z,26.02
2019-02-23T12:29:43.042Z,25.77
2019-02-23T12:30:46.567Z,25.84
2019-02-23T12:31:49.983Z,26.35
2019-02-23T12:32:53.410Z,25.10
2019-02-23T12:33:56.840Z,25.10
2019-02-23T12:35:00.344Z,25.59
2019-02-23T12:36:03.878Z,25.72
2019-02-23T12:37:07.300Z,23.28
2019-02-23T12:38:10.724Z,23.39
2019-02-23T12:39:14.149Z,22.59
2019-02-23T12:40:17.671Z,22.77
2019-02-23T12:41:21.139Z,21.77
2019-02-23T12:42:24.565Z,21.35
2019-02-23T12:43:28.002Z,20.10
2019-02-23T12:44:31.501Z,19.57
2019-02-23T12:45:35.072Z,20.07
2019-02-23T12:46:38.522Z,20.52
2019-02-23T12:47:42.033Z,21.16
2019-02-23T12:48:45.458Z,21.38
2019-02-23T12:49:48.893Z,21.23
2019-02-23T12:50:52.428Z,22.76
2019-02-23T12:51:55.953Z,22.36
2019-02-23T12:52:59.880Z,23.28
2019-02-23T12:54:03.389Z,23.40
2019-02-23T12:55:09.159Z,23.48
2019-02-23T12:56:12.625Z,23.58
2019-02-23T12:57:16.191Z,23.70
2019-02-23T12:58:19.785Z,23.70
2019-02-23T12:59:23.341Z,23.48
2019-02-23T13:00:26.855Z,24.30
2019-02-23T13:01:30.329Z,23.51
2019-02-23T13:02:33.864Z,22.47
2019-02-23T13:03:37.283Z,21.81
2019-02-23T13:04:40.792Z,21.02
2019-02-23T13:05:44.310Z,20.96
2019-02-23T13:06:47.941Z,21.08
2019-02-23T13:07:51.462Z,21.32
2019-02-23T13:09:12.426Z,21.58
2019-02-23T13:10:16.066Z,21.23
2019-02-23T13:11:19.582Z,21.67
2019-02-23T13:12:47.177Z,20.92
2019-02-23T13:14:05.380Z,20.60
2019-02-23T13:15:17.379Z,21.22
2019-02-23T13:16:23.929Z,20.69
2019-02-23T13:17:49.306Z,21.72
2019-02-23T13:19:04.443Z,21.22
2019-02-23T13:20:22.804Z,21.11
2019-02-23T13:21:45.992Z,21.72
2019-02-23T13:23:08.632Z,21.67
2019-02-23T13:24:27.681Z,22.30
2019-02-23T13:25:43.368Z,23.01
2019-02-23T13:27:04.803Z,22.67
2019-02-23T13:28:31.954Z,22.54
2019-02-23T13:29:47.163Z,22.50
2019-02-23T13:31:02.049Z,22.72
2019-02-23T13:32:27.499Z,22.29
2019-02-23T13:33:45.801Z,23.48
2019-02-23T13:35:08.415Z,23.23
2019-02-23T13:36:41.768Z,23.59
2019-02-23T13:37:53.791Z,23.06
2019-02-23T13:39:28.550Z,23.39
2019-02-23T13:40:38.037Z,22.30
2019-02-23T13:41:53.130Z,22.50
2019-02-23T13:43:08.370Z,22.83
2019-02-23T13:44:19.275Z,23.28
2019-02-23T13:45:39.868Z,22.22